EXS65NA EGBB-LDDU
Flight info
| Callsign | EXS65NA |
|---|---|
| Flight time | N/A |
| Altitude | 37000 |
| Route | COWLY Q70 BIG UL9 KONAN DCT KOK DCT PITES DCT EDISA DCT PICWI DCT UTABA DCT BEMKI DCT ELMEM DCT DIRAB DCT VESAL DCT BABAG DCT PEVAL DCT NAKIT DCT PUL DCT EBITA DCT ZDA DCT SPL L607 SIPAL |
| Aircraft | B738/M-SDE2E3FGHIRWXY/LB1 |
Departure
| Time | N/A |
|---|---|
| Airport | Birmingham Airport (EGBB) |
Arrival
| Time | 2026-04-30 20:05 |
|---|---|
| Airport | Dubrovnik Ruđer Bošković Airport (LDDU) |
| Time | Latitude | Longitude | Altitude | Speed | Heading |
|---|---|---|---|---|---|
| 2026-04-30 17:39 | 51.93747 | -1.31458 | 21630 ft | 314 kts | 153° |
| 2026-04-30 17:41 | 51.78237 | -1.19367 | 25514 ft | 332 kts | 153° |
| 2026-04-30 17:42 | 51.74041 | -1.16110 | 26394 ft | 337 kts | 153° |
| 2026-04-30 17:42 | 51.67637 | -1.11156 | 27693 ft | 342 kts | 153° |
| 2026-04-30 17:43 | 51.63346 | -1.07736 | 28437 ft | 348 kts | 145° |
| 2026-04-30 17:44 | 51.59311 | -0.97763 | 28838 ft | 378 kts | 114° |
| 2026-04-30 17:44 | 51.56283 | -0.85514 | 29028 ft | 407 kts | 114° |
| 2026-04-30 17:46 | 51.50725 | -0.63856 | 30126 ft | 425 kts | 115° |
| 2026-04-30 17:47 | 51.46143 | -0.46174 | 31452 ft | 425 kts | 115° |
| 2026-04-30 17:48 | 51.41581 | -0.28674 | 32576 ft | 426 kts | 115° |
| 2026-04-30 17:48 | 51.38155 | -0.15623 | 33545 ft | 423 kts | 115° |
| 2026-04-30 17:49 | 51.33583 | 0.01711 | 34594 ft | 422 kts | 114° |
| 2026-04-30 17:50 | 51.31072 | 0.19898 | 35569 ft | 423 kts | 103° |
| 2026-04-30 17:51 | 51.29349 | 0.33757 | 36266 ft | 422 kts | 103° |
| 2026-04-30 17:52 | 51.27667 | 0.47652 | 36683 ft | 426 kts | 102° |
| 2026-04-30 17:53 | 51.24731 | 0.70713 | 37202 ft | 422 kts | 103° |
| 2026-04-30 17:54 | 51.22411 | 0.89060 | 37193 ft | 414 kts | 102° |
| 2026-04-30 17:56 | 51.17781 | 1.24752 | 37200 ft | 415 kts | 103° |
| 2026-04-30 17:58 | 51.15468 | 1.52247 | 37193 ft | 422 kts | 95° |
| 2026-04-30 18:00 | 51.13645 | 1.89585 | 37177 ft | 422 kts | 96° |
| 2026-04-30 18:00 | 51.10889 | 2.02686 | 37198 ft | 417 kts | 116° |
| 2026-04-30 18:01 | 51.08364 | 2.10990 | 37196 ft | 416 kts | 116° |
| 2026-04-30 18:02 | 51.00878 | 2.35874 | 37199 ft | 416 kts | 115° |
| 2026-04-30 18:04 | 50.93378 | 2.60707 | 37195 ft | 417 kts | 115° |
| 2026-04-30 18:06 | 50.83231 | 2.93912 | 37195 ft | 420 kts | 116° |
| 2026-04-30 18:08 | 50.74241 | 3.22949 | 37197 ft | 420 kts | 116° |
| 2026-04-30 18:10 | 50.63926 | 3.55852 | 37202 ft | 418 kts | 116° |
| 2026-04-30 18:11 | 50.54859 | 3.84418 | 37223 ft | 417 kts | 116° |
| 2026-04-30 18:13 | 50.48324 | 4.04805 | 37246 ft | 418 kts | 116° |
| 2026-04-30 18:14 | 50.41727 | 4.25218 | 37245 ft | 420 kts | 116° |
| 2026-04-30 18:15 | 50.33755 | 4.49656 | 37245 ft | 421 kts | 116° |
| 2026-04-30 18:16 | 50.28856 | 4.64563 | 37234 ft | 420 kts | 116° |
| 2026-04-30 18:17 | 50.26174 | 4.72683 | 37244 ft | 420 kts | 116° |
| 2026-04-30 18:18 | 50.22144 | 4.84837 | 37244 ft | 419 kts | 116° |
| 2026-04-30 18:18 | 50.19470 | 4.92870 | 37250 ft | 419 kts | 116° |
| 2026-04-30 18:19 | 50.16779 | 5.00933 | 37249 ft | 419 kts | 116° |
| 2026-04-30 18:19 | 50.14076 | 5.09002 | 37248 ft | 419 kts | 116° |
| 2026-04-30 18:20 | 50.11365 | 5.17066 | 37252 ft | 419 kts | 116° |
| 2026-04-30 18:20 | 50.08668 | 5.25067 | 37247 ft | 419 kts | 116° |
| 2026-04-30 18:21 | 50.05943 | 5.33120 | 37253 ft | 420 kts | 116° |
| 2026-04-30 18:21 | 50.03214 | 5.41159 | 37250 ft | 421 kts | 116° |
| 2026-04-30 18:22 | 50.00474 | 5.49211 | 37251 ft | 421 kts | 116° |
| 2026-04-30 18:22 | 49.96366 | 5.61237 | 37258 ft | 422 kts | 116° |
| 2026-04-30 18:23 | 49.93612 | 5.69262 | 37260 ft | 422 kts | 116° |
| 2026-04-30 18:23 | 49.90844 | 5.77303 | 37265 ft | 422 kts | 116° |
| 2026-04-30 18:24 | 49.86681 | 5.89351 | 37267 ft | 422 kts | 116° |
| 2026-04-30 18:25 | 49.83897 | 5.97372 | 37270 ft | 422 kts | 116° |
| 2026-04-30 18:25 | 49.79732 | 6.09335 | 37268 ft | 422 kts | 116° |
| 2026-04-30 18:26 | 49.75538 | 6.21324 | 37268 ft | 421 kts | 116° |
| 2026-04-30 18:27 | 49.71343 | 6.33254 | 37270 ft | 421 kts | 116° |
| 2026-04-30 18:28 | 49.67131 | 6.45183 | 37269 ft | 421 kts | 116° |
| 2026-04-30 18:28 | 49.62910 | 6.57079 | 37268 ft | 421 kts | 116° |
| 2026-04-30 18:29 | 49.57251 | 6.72940 | 37267 ft | 422 kts | 116° |
| 2026-04-30 18:30 | 49.51572 | 6.88768 | 37276 ft | 424 kts | 115° |
| 2026-04-30 18:31 | 49.47268 | 7.00696 | 37277 ft | 424 kts | 115° |
| 2026-04-30 18:32 | 49.42948 | 7.12601 | 37281 ft | 425 kts | 115° |
| 2026-04-30 18:33 | 49.38611 | 7.24515 | 37277 ft | 426 kts | 115° |
| 2026-04-30 18:33 | 49.34273 | 7.36371 | 37276 ft | 426 kts | 115° |
| 2026-04-30 18:34 | 49.29910 | 7.48244 | 37281 ft | 426 kts | 115° |
| 2026-04-30 18:35 | 49.26991 | 7.56159 | 37289 ft | 426 kts | 115° |
| 2026-04-30 18:35 | 49.24063 | 7.64072 | 37284 ft | 426 kts | 115° |
| 2026-04-30 18:36 | 49.19667 | 7.75904 | 37282 ft | 426 kts | 115° |
| 2026-04-30 18:37 | 49.15263 | 7.87708 | 37285 ft | 426 kts | 115° |
| 2026-04-30 18:37 | 49.12342 | 7.95513 | 37276 ft | 426 kts | 115° |
| 2026-04-30 18:38 | 49.09383 | 8.03391 | 37280 ft | 427 kts | 115° |
| 2026-04-30 18:38 | 49.06420 | 8.11248 | 37274 ft | 427 kts | 115° |
| 2026-04-30 18:39 | 49.03458 | 8.19087 | 37282 ft | 426 kts | 114° |
| 2026-04-30 18:39 | 49.00490 | 8.26923 | 37278 ft | 426 kts | 115° |
| 2026-04-30 18:40 | 48.96798 | 8.34088 | 37273 ft | 438 kts | 133° |
| 2026-04-30 18:40 | 48.92274 | 8.40287 | 37278 ft | 436 kts | 129° |
| 2026-04-30 18:41 | 48.88142 | 8.47012 | 37279 ft | 435 kts | 127° |
| 2026-04-30 18:41 | 48.84053 | 8.53803 | 37282 ft | 436 kts | 127° |
| 2026-04-30 18:42 | 48.79930 | 8.60502 | 37278 ft | 437 kts | 128° |
| 2026-04-30 18:42 | 48.73647 | 8.70552 | 37279 ft | 439 kts | 128° |
| 2026-04-30 18:45 | 48.50336 | 9.07450 | 37292 ft | 440 kts | 128° |
| 2026-04-30 18:46 | 48.46114 | 9.14078 | 37290 ft | 441 kts | 128° |
| 2026-04-30 18:46 | 48.41866 | 9.20731 | 37295 ft | 441 kts | 128° |
| 2026-04-30 18:47 | 48.37601 | 9.27393 | 37294 ft | 441 kts | 128° |
| 2026-04-30 18:47 | 48.33333 | 9.34042 | 37295 ft | 441 kts | 128° |
| 2026-04-30 18:48 | 48.29069 | 9.40670 | 37293 ft | 441 kts | 127° |
| 2026-04-30 18:48 | 48.24759 | 9.47251 | 37290 ft | 445 kts | 131° |
| 2026-04-30 18:49 | 48.19996 | 9.53242 | 37296 ft | 448 kts | 135° |
| 2026-04-30 18:49 | 48.15108 | 9.59090 | 37284 ft | 449 kts | 135° |
| 2026-04-30 18:50 | 48.10234 | 9.64977 | 37293 ft | 450 kts | 134° |
| 2026-04-30 18:50 | 48.05425 | 9.70844 | 37287 ft | 450 kts | 134° |
| 2026-04-30 18:51 | 48.00572 | 9.76779 | 37282 ft | 450 kts | 134° |
| 2026-04-30 18:51 | 47.95719 | 9.82704 | 37291 ft | 450 kts | 134° |
| 2026-04-30 18:52 | 47.90842 | 9.88625 | 37288 ft | 451 kts | 134° |
| 2026-04-30 18:52 | 47.85990 | 9.94502 | 37279 ft | 453 kts | 134° |
| 2026-04-30 18:53 | 47.81090 | 10.00419 | 37285 ft | 454 kts | 134° |
| 2026-04-30 18:53 | 47.76182 | 10.06327 | 37280 ft | 454 kts | 134° |
| 2026-04-30 18:54 | 47.72094 | 10.11235 | 37289 ft | 454 kts | 134° |
| 2026-04-30 18:54 | 47.67177 | 10.17135 | 37275 ft | 454 kts | 135° |
| 2026-04-30 18:55 | 47.62261 | 10.23018 | 37274 ft | 453 kts | 134° |
| 2026-04-30 18:55 | 47.54854 | 10.31774 | 37280 ft | 455 kts | 138° |
| 2026-04-30 18:56 | 47.46940 | 10.39446 | 37299 ft | 458 kts | 142° |
| 2026-04-30 18:57 | 47.38900 | 10.47149 | 37296 ft | 460 kts | 141° |
| 2026-04-30 18:57 | 47.33513 | 10.52356 | 37277 ft | 460 kts | 141° |
| 2026-04-30 18:58 | 47.25490 | 10.60218 | 37275 ft | 461 kts | 139° |
| 2026-04-30 18:59 | 47.17713 | 10.68486 | 37282 ft | 462 kts | 139° |
| 2026-04-30 19:00 | 47.07175 | 10.79540 | 37250 ft | 466 kts | 140° |
| 2026-04-30 19:01 | 46.96570 | 10.90540 | 37244 ft | 467 kts | 140° |
| 2026-04-30 19:02 | 46.88605 | 10.98780 | 37267 ft | 467 kts | 140° |
| 2026-04-30 19:03 | 46.78485 | 11.10483 | 37275 ft | 458 kts | 128° |
| 2026-04-30 19:04 | 46.69851 | 11.24166 | 37257 ft | 461 kts | 128° |
| 2026-04-30 19:05 | 46.61055 | 11.37802 | 37253 ft | 463 kts | 129° |
| 2026-04-30 19:06 | 46.52180 | 11.51437 | 37249 ft | 463 kts | 129° |
| 2026-04-30 19:06 | 46.45508 | 11.61682 | 37249 ft | 466 kts | 129° |
| 2026-04-30 19:07 | 46.38831 | 11.71861 | 37277 ft | 466 kts | 130° |
| 2026-04-30 19:08 | 46.29624 | 11.85168 | 37287 ft | 468 kts | 131° |
| 2026-04-30 19:09 | 46.22638 | 11.95132 | 37290 ft | 470 kts | 131° |
| 2026-04-30 19:09 | 46.17988 | 12.01787 | 37300 ft | 472 kts | 132° |
| 2026-04-30 19:10 | 46.08652 | 12.15099 | 37296 ft | 473 kts | 132° |
| 2026-04-30 19:11 | 46.01608 | 12.25089 | 37276 ft | 475 kts | 132° |
| 2026-04-30 19:12 | 45.96904 | 12.31743 | 37274 ft | 474 kts | 132° |
| 2026-04-30 19:12 | 45.92214 | 12.38358 | 37292 ft | 472 kts | 132° |
| 2026-04-30 19:13 | 45.82851 | 12.51516 | 37293 ft | 470 kts | 133° |
| 2026-04-30 19:14 | 45.78178 | 12.58058 | 37295 ft | 469 kts | 133° |
| 2026-04-30 19:14 | 45.73489 | 12.64608 | 37291 ft | 469 kts | 133° |
| 2026-04-30 19:15 | 45.68819 | 12.71116 | 37296 ft | 469 kts | 133° |
| 2026-04-30 19:15 | 45.61825 | 12.80834 | 37296 ft | 469 kts | 133° |
| 2026-04-30 19:16 | 45.57107 | 12.87370 | 37299 ft | 469 kts | 133° |
| 2026-04-30 19:17 | 45.50065 | 12.97087 | 37294 ft | 470 kts | 134° |
| 2026-04-30 19:17 | 45.43014 | 13.06786 | 37298 ft | 470 kts | 134° |
| 2026-04-30 19:18 | 45.36091 | 13.16693 | 37297 ft | 469 kts | 129° |
| 2026-04-30 19:19 | 45.31808 | 13.23667 | 37298 ft | 469 kts | 129° |
| 2026-04-30 19:19 | 45.25368 | 13.34125 | 37296 ft | 469 kts | 128° |
| 2026-04-30 19:20 | 45.21077 | 13.41118 | 37293 ft | 469 kts | 129° |
| 2026-04-30 19:21 | 45.14630 | 13.51510 | 37294 ft | 470 kts | 129° |
| 2026-04-30 19:22 | 45.05929 | 13.65344 | 37292 ft | 469 kts | 129° |
| 2026-04-30 19:23 | 44.92897 | 13.85976 | 37291 ft | 470 kts | 130° |
| 2026-04-30 19:24 | 44.86413 | 13.96359 | 37301 ft | 470 kts | 128° |
| 2026-04-30 19:25 | 44.76019 | 14.14171 | 37292 ft | 471 kts | 128° |
| 2026-04-30 19:26 | 44.67615 | 14.28345 | 37293 ft | 472 kts | 129° |
| 2026-04-30 19:27 | 44.61306 | 14.38940 | 37298 ft | 473 kts | 129° |
| 2026-04-30 19:27 | 44.57080 | 14.46010 | 36794 ft | 466 kts | 129° |
| 2026-04-30 19:28 | 44.55012 | 14.49469 | 36538 ft | 461 kts | 129° |
| 2026-04-30 19:28 | 44.50928 | 14.56279 | 36033 ft | 453 kts | 129° |
| 2026-04-30 19:29 | 44.46909 | 14.62962 | 35531 ft | 451 kts | 129° |
| 2026-04-30 19:29 | 44.44882 | 14.66328 | 35299 ft | 454 kts | 129° |
| 2026-04-30 19:30 | 44.38761 | 14.76474 | 34550 ft | 451 kts | 129° |
| 2026-04-30 19:30 | 44.35122 | 14.83554 | 34052 ft | 445 kts | 122° |
| 2026-04-30 19:31 | 44.32283 | 14.89589 | 33632 ft | 441 kts | 122° |
| 2026-04-30 19:31 | 44.30596 | 14.93158 | 33377 ft | 439 kts | 122° |
| 2026-04-30 19:31 | 44.27215 | 15.00198 | 32884 ft | 435 kts | 123° |
| 2026-04-30 19:32 | 44.25525 | 15.03679 | 32639 ft | 432 kts | 123° |
| 2026-04-30 19:32 | 44.23840 | 15.07142 | 32388 ft | 430 kts | 123° |
| 2026-04-30 19:32 | 44.22156 | 15.10592 | 32146 ft | 428 kts | 123° |
| 2026-04-30 19:32 | 44.20502 | 15.13976 | 31890 ft | 426 kts | 123° |
| 2026-04-30 19:33 | 44.18834 | 15.17385 | 31644 ft | 424 kts | 123° |
| 2026-04-30 19:33 | 44.17181 | 15.20760 | 31397 ft | 421 kts | 123° |
| 2026-04-30 19:33 | 44.15541 | 15.24106 | 31277 ft | 417 kts | 123° |
| 2026-04-30 19:33 | 44.13902 | 15.27444 | 31279 ft | 416 kts | 123° |
| 2026-04-30 19:34 | 44.10627 | 15.34112 | 31274 ft | 417 kts | 124° |
| 2026-04-30 19:35 | 44.05177 | 15.43559 | 31267 ft | 416 kts | 131° |
| 2026-04-30 19:35 | 44.01310 | 15.49573 | 31267 ft | 416 kts | 131° |
| 2026-04-30 19:36 | 43.97499 | 15.55555 | 31262 ft | 417 kts | 132° |
| 2026-04-30 19:36 | 43.91739 | 15.64669 | 31271 ft | 420 kts | 132° |
| 2026-04-30 19:37 | 43.89803 | 15.67733 | 31086 ft | 423 kts | 132° |
| 2026-04-30 19:37 | 43.87869 | 15.70793 | 30832 ft | 421 kts | 132° |
| 2026-04-30 19:37 | 43.85949 | 15.73830 | 30577 ft | 416 kts | 131° |
| 2026-04-30 19:37 | 43.84051 | 15.76828 | 30323 ft | 411 kts | 132° |
| 2026-04-30 19:38 | 43.82174 | 15.79789 | 30065 ft | 406 kts | 132° |
| 2026-04-30 19:38 | 43.80319 | 15.82710 | 29806 ft | 402 kts | 132° |
| 2026-04-30 19:38 | 43.78478 | 15.85606 | 29558 ft | 398 kts | 132° |
| 2026-04-30 19:38 | 43.76658 | 15.88465 | 29309 ft | 394 kts | 131° |
| 2026-04-30 19:39 | 43.74858 | 15.91292 | 29027 ft | 390 kts | 132° |
| 2026-04-30 19:39 | 43.73066 | 15.94102 | 28675 ft | 388 kts | 131° |
| 2026-04-30 19:39 | 43.71282 | 15.96896 | 28329 ft | 386 kts | 131° |
| 2026-04-30 19:39 | 43.69506 | 15.99676 | 27978 ft | 384 kts | 131° |
| 2026-04-30 19:40 | 43.67740 | 16.02442 | 27625 ft | 383 kts | 132° |
| 2026-04-30 19:40 | 43.65979 | 16.05192 | 27280 ft | 381 kts | 131° |
| 2026-04-30 19:40 | 43.64221 | 16.07937 | 26930 ft | 380 kts | 131° |
| 2026-04-30 19:40 | 43.62475 | 16.10662 | 26570 ft | 378 kts | 132° |
| 2026-04-30 19:41 | 43.60736 | 16.13369 | 26225 ft | 377 kts | 131° |
| 2026-04-30 19:41 | 43.59021 | 16.16040 | 25876 ft | 375 kts | 131° |
| 2026-04-30 19:41 | 43.57290 | 16.18731 | 25524 ft | 374 kts | 131° |
| 2026-04-30 19:41 | 43.55565 | 16.21411 | 25187 ft | 372 kts | 131° |
| 2026-04-30 19:42 | 43.53851 | 16.24072 | 24833 ft | 370 kts | 131° |
| 2026-04-30 19:42 | 43.52145 | 16.26719 | 24505 ft | 369 kts | 131° |
| 2026-04-30 19:42 | 43.50442 | 16.29354 | 24159 ft | 367 kts | 131° |
| 2026-04-30 19:42 | 43.48856 | 16.32111 | 23851 ft | 365 kts | 123° |
| 2026-04-30 19:43 | 43.47476 | 16.35031 | 23565 ft | 361 kts | 121° |
| 2026-04-30 19:43 | 43.46146 | 16.37959 | 23234 ft | 360 kts | 121° |
| 2026-04-30 19:43 | 43.44830 | 16.40877 | 22902 ft | 358 kts | 121° |
| 2026-04-30 19:44 | 43.42204 | 16.46639 | 22245 ft | 355 kts | 121° |
| 2026-04-30 19:44 | 43.40894 | 16.49481 | 21917 ft | 353 kts | 121° |
| 2026-04-30 19:44 | 43.39574 | 16.52329 | 21582 ft | 352 kts | 121° |
| 2026-04-30 19:44 | 43.38242 | 16.55158 | 21191 ft | 353 kts | 122° |
| 2026-04-30 19:45 | 43.36870 | 16.57964 | 20789 ft | 354 kts | 123° |
| 2026-04-30 19:45 | 43.35488 | 16.60748 | 20461 ft | 352 kts | 123° |
| 2026-04-30 19:45 | 43.34103 | 16.63526 | 20107 ft | 351 kts | 123° |
| 2026-04-30 19:45 | 43.32727 | 16.66288 | 19789 ft | 350 kts | 123° |
| 2026-04-30 19:46 | 43.31358 | 16.69039 | 19456 ft | 348 kts | 123° |
| 2026-04-30 19:46 | 43.29990 | 16.71790 | 19122 ft | 347 kts | 123° |
| 2026-04-30 19:46 | 43.28638 | 16.74511 | 18798 ft | 345 kts | 123° |
| 2026-04-30 19:46 | 43.27282 | 16.77240 | 18469 ft | 344 kts | 123° |
| 2026-04-30 19:47 | 43.25936 | 16.79948 | 18137 ft | 342 kts | 123° |
| 2026-04-30 19:47 | 43.25052 | 16.81726 | 17941 ft | 340 kts | 123° |
| 2026-04-30 19:47 | 43.23272 | 16.85305 | 17499 ft | 338 kts | 123° |
| 2026-04-30 19:47 | 43.21941 | 16.87975 | 17182 ft | 337 kts | 123° |
| 2026-04-30 19:48 | 43.20623 | 16.90618 | 16859 ft | 335 kts | 123° |
| 2026-04-30 19:48 | 43.19308 | 16.93252 | 16544 ft | 334 kts | 123° |
| 2026-04-30 19:48 | 43.18014 | 16.95841 | 16227 ft | 332 kts | 123° |
| 2026-04-30 19:48 | 43.16711 | 16.98451 | 15898 ft | 330 kts | 122° |
| 2026-04-30 19:49 | 43.15416 | 17.01041 | 15608 ft | 329 kts | 122° |
| 2026-04-30 19:49 | 43.12840 | 17.06179 | 14986 ft | 325 kts | 122° |
| 2026-04-30 19:49 | 43.11562 | 17.08727 | 14666 ft | 324 kts | 123° |
| 2026-04-30 19:50 | 43.10290 | 17.11261 | 14352 ft | 322 kts | 122° |
| 2026-04-30 19:50 | 43.09021 | 17.13786 | 14049 ft | 320 kts | 122° |
| 2026-04-30 19:50 | 43.07761 | 17.16291 | 13744 ft | 318 kts | 122° |
| 2026-04-30 19:50 | 43.06509 | 17.18777 | 13434 ft | 316 kts | 122° |
| 2026-04-30 19:51 | 43.05278 | 17.21222 | 13137 ft | 315 kts | 122° |
| 2026-04-30 19:51 | 43.04039 | 17.23677 | 12836 ft | 313 kts | 122° |
| 2026-04-30 19:51 | 43.02805 | 17.26121 | 12540 ft | 311 kts | 122° |
| 2026-04-30 19:51 | 43.01580 | 17.28546 | 12238 ft | 309 kts | 122° |
| 2026-04-30 19:52 | 43.00364 | 17.30951 | 11942 ft | 307 kts | 122° |
| 2026-04-30 19:52 | 42.99162 | 17.33329 | 11652 ft | 305 kts | 122° |
| 2026-04-30 19:52 | 42.97957 | 17.35711 | 11359 ft | 303 kts | 122° |
| 2026-04-30 19:52 | 42.96758 | 17.38078 | 11071 ft | 302 kts | 122° |
| 2026-04-30 19:53 | 42.95567 | 17.40426 | 10776 ft | 300 kts | 122° |
| 2026-04-30 19:53 | 42.94378 | 17.42767 | 10481 ft | 299 kts | 122° |
| 2026-04-30 19:53 | 42.93200 | 17.45087 | 10270 ft | 294 kts | 122° |
| 2026-04-30 19:53 | 42.92039 | 17.47372 | 9997 ft | 292 kts | 122° |
| 2026-04-30 19:54 | 42.90903 | 17.49603 | 9855 ft | 283 kts | 122° |
| 2026-04-30 19:54 | 42.89763 | 17.51843 | 9479 ft | 287 kts | 122° |
| 2026-04-30 19:54 | 42.88623 | 17.54084 | 9133 ft | 287 kts | 122° |
| 2026-04-30 19:54 | 42.87486 | 17.56318 | 8830 ft | 286 kts | 122° |
| 2026-04-30 19:55 | 42.86355 | 17.58535 | 8555 ft | 283 kts | 122° |
| 2026-04-30 19:55 | 42.85233 | 17.60733 | 8293 ft | 281 kts | 123° |
| 2026-04-30 19:55 | 42.84135 | 17.62880 | 8030 ft | 279 kts | 123° |
| 2026-04-30 19:55 | 42.83029 | 17.65042 | 7762 ft | 277 kts | 123° |
| 2026-04-30 19:56 | 42.81928 | 17.67196 | 7495 ft | 276 kts | 123° |
| 2026-04-30 19:56 | 42.80831 | 17.69335 | 7232 ft | 274 kts | 123° |
| 2026-04-30 19:56 | 42.79743 | 17.71458 | 6957 ft | 272 kts | 123° |
| 2026-04-30 19:56 | 42.78664 | 17.73567 | 6693 ft | 270 kts | 123° |
| 2026-04-30 19:57 | 42.77590 | 17.75659 | 6425 ft | 268 kts | 123° |
| 2026-04-30 19:57 | 42.76541 | 17.77708 | 6177 ft | 267 kts | 123° |
| 2026-04-30 19:57 | 42.75478 | 17.79778 | 5904 ft | 266 kts | 123° |
| 2026-04-30 19:57 | 42.74419 | 17.81834 | 5639 ft | 265 kts | 123° |
| 2026-04-30 19:58 | 42.73365 | 17.83892 | 5362 ft | 264 kts | 122° |
| 2026-04-30 19:58 | 42.72411 | 17.85968 | 5273 ft | 251 kts | 118° |
| 2026-04-30 19:58 | 42.71574 | 17.87974 | 5165 ft | 236 kts | 117° |
| 2026-04-30 19:58 | 42.70811 | 17.89872 | 5045 ft | 221 kts | 116° |
| 2026-04-30 19:59 | 42.70116 | 17.91616 | 5028 ft | 203 kts | 116° |
| 2026-04-30 19:59 | 42.69459 | 17.93269 | 5034 ft | 197 kts | 116° |
| 2026-04-30 19:59 | 42.68153 | 17.96550 | 5033 ft | 199 kts | 116° |
| 2026-04-30 20:00 | 42.67484 | 17.98233 | 4817 ft | 204 kts | 117° |
| 2026-04-30 20:00 | 42.66819 | 17.99902 | 4566 ft | 198 kts | 116° |
| 2026-04-30 20:00 | 42.66172 | 18.01526 | 4295 ft | 193 kts | 116° |
| 2026-04-30 20:00 | 42.65542 | 18.03109 | 4043 ft | 188 kts | 116° |
| 2026-04-30 20:01 | 42.64327 | 18.06167 | 3551 ft | 180 kts | 116° |
| 2026-04-30 20:01 | 42.63742 | 18.07635 | 3323 ft | 177 kts | 116° |
| 2026-04-30 20:01 | 42.63157 | 18.09114 | 3092 ft | 177 kts | 116° |
| 2026-04-30 20:02 | 42.62034 | 18.11937 | 2631 ft | 158 kts | 115° |
| 2026-04-30 20:02 | 42.61531 | 18.13201 | 2467 ft | 148 kts | 114° |
| 2026-04-30 20:03 | 42.60568 | 18.15638 | 2047 ft | 146 kts | 112° |
| 2026-04-30 20:03 | 42.60089 | 18.16842 | 1853 ft | 145 kts | 112° |
| 2026-04-30 20:03 | 42.59615 | 18.18039 | 1662 ft | 143 kts | 111° |
| 2026-04-30 20:03 | 42.59169 | 18.19164 | 1469 ft | 141 kts | 111° |
| 2026-04-30 20:04 | 42.58702 | 18.20345 | 1298 ft | 143 kts | 110° |
| 2026-04-30 20:04 | 42.58229 | 18.21540 | 1116 ft | 144 kts | 110° |
| 2026-04-30 20:04 | 42.57764 | 18.22710 | 944 ft | 139 kts | 108° |
| 2026-04-30 20:05 | 42.56854 | 18.25003 | 571 ft | 136 kts | 108° |
| 2026-04-30 20:05 | 42.56450 | 18.26047 | 533 ft | 110 kts | 118° |
| 2026-04-30 20:05 | 42.55978 | 18.27236 | 532 ft | 47 kts | 117° |
| 2026-04-30 20:06 | 42.55839 | 18.27342 | 532 ft | 8 kts | 174° |
| 2026-04-30 20:06 | 42.55784 | 18.27339 | 533 ft | 8 kts | 207° |
| 2026-04-30 20:06 | 42.55776 | 18.27268 | 533 ft | 10 kts | 287° |
| 2026-04-30 20:06 | 42.55817 | 18.27157 | 533 ft | 14 kts | 299° |
| 2026-04-30 20:07 | 42.55861 | 18.27045 | 533 ft | 13 kts | 298° |
| 2026-04-30 20:07 | 42.55904 | 18.26937 | 533 ft | 13 kts | 298° |
| 2026-04-30 20:07 | 42.55972 | 18.26766 | 533 ft | 13 kts | 298° |
| 2026-04-30 20:08 | 42.56015 | 18.26658 | 533 ft | 13 kts | 298° |
| 2026-04-30 20:08 | 42.56057 | 18.26551 | 533 ft | 13 kts | 298° |
| 2026-04-30 20:08 | 42.56099 | 18.26448 | 533 ft | 12 kts | 298° |
| 2026-04-30 20:08 | 42.56135 | 18.26356 | 533 ft | 7 kts | 290° |
| 2026-04-30 20:09 | 42.56102 | 18.26312 | 533 ft | 4 kts | 208° |
| 2026-04-30 20:09 | 42.56092 | 18.26305 | 533 ft | 0 kts | 208° |